Time;durP1;ratioP1;P1;durP2;ratioP2;P2;SDS_P1;SDS_P2;PMS_P1;PMS_P2;Temp;Humidity;BMP_temperature;BMP_pressure;BME280_temperature;BME280_humidity;BME280_pressure;Samples;Min_cycle;Max_cycle;Signal;HPM_P1;HPM_P2
2021/10/23 00:00:13;;;;;;;;;;;;;;;;;;1034673;28;965;-14
2021/10/23 00:00:44;;;;;;;;;;;;;;;;;;1029291;28;1273;-12
2021/10/23 00:01:14;;;;;;;;;;;;;;;;;;1029806;28;1470;-14
2021/10/23 00:01:46;;;;;;;;;;;;;;;;;;1029718;28;1059;-13
2021/10/23 00:02:17;;;;;;;;;;;;;;;;;;1012706;29;1586;-14
2021/10/23 00:02:48;;;;;;;;;;;;;;;;;;1013768;29;1322;-14
2021/10/23 00:03:18;;;;;;;;;;;;;;;;;;1001475;29;1197;-14
2021/10/23 00:03:49;;;;;;;;;;;;;;;;;;999014;29;988;-13
2021/10/23 00:04:20;;;;;;;;;;;;;;;;;;1009682;29;1193;-13
2021/10/23 00:04:50;;;;;;;;;;;;;;;;;;1013748;28;1334;-15
2021/10/23 00:05:21;;;;;;;;;;;;;;;;;;1029814;28;1055;-14
2021/10/23 00:05:51;;;;;;;;;;;;;;;;;;1025345;28;1320;-13
2021/10/23 00:06:22;;;;;;;;;;;;;;;;;;1029459;28;1181;-14
2021/10/23 00:06:53;;;;;;;;;;;;;;;;;;1025459;28;1176;-14
2021/10/23 00:07:24;;;;;;;;;;;;;;;;;;1025463;28;1780;-15
2021/10/23 00:07:55;;;;;;;;;;;;;;;;;;1021545;28;1102;-13
2021/10/23 00:08:26;;;;;;;;;;;;;;;;;;1017584;29;1218;-12
2021/10/23 00:08:56;;;;;;;;;;;;;;;;;;1021025;29;1523;-14
2021/10/23 00:09:27;;;;;;;;;;;;;;;;;;1017690;28;1260;-14
2021/10/23 00:09:58;;;;;;;;;;;;;;;;;;1020811;28;1881;-14
2021/10/23 00:10:29;;;;;;;;;;;;;;;;;;1025615;28;1112;-15
2021/10/23 00:10:59;;;;;;;;;;;;;;;;;;1025775;28;1128;-15
2021/10/23 00:11:30;;;;;;;;;;;;;;;;;;1021324;28;1194;-16
2021/10/23 00:12:01;;;;;;;;;;;;;;;;;;1029661;28;1123;-15
2021/10/23 00:12:33;;;;;;;;;;;;;;;;;;1028881;28;1732;-15
2021/10/23 00:13:04;;;;;;;;;;;;;;;;;;1024905;28;1265;-15
2021/10/23 00:13:35;;;;;;;;;;;;;;;;;;1021690;29;962;-15
2021/10/23 00:14:05;;;;;;;;;;;;;;;;;;1012850;29;1172;-15
2021/10/23 00:14:37;;;;;;;;;;;;;;;;;;1013330;29;2006;-15
2021/10/23 00:15:07;;;;;;;;;;;;;;;;;;1017552;28;1642;-15
2021/10/23 00:15:38;;;;;;;;;;;;;;;;;;1029863;28;1319;-16
2021/10/23 00:16:10;;;;;;;;;;;;;;;;;;1037756;28;1106;-15
2021/10/23 00:16:40;;;;;;;;;;;;;;;;;;1032711;28;1460;-16
2021/10/23 00:17:11;;;;;;;;;;;;;;;;;;1029243;28;1171;-15
2021/10/23 00:17:41;;;;;;;;;;;;;;;;;;1018227;29;1054;-15
2021/10/23 00:18:12;;;;;;;;;;;;;;;;;;1020938;28;1254;-15
2021/10/23 00:18:42;;;;;;;;;;;;;;;;;;1025696;28;1033;-15
2021/10/23 00:19:13;;;;;;;;;;;;;;;;;;1025572;28;1973;-15
2021/10/23 00:19:44;;;;;;;;;;;;;;;;;;1029690;28;1108;-15
2021/10/23 00:20:14;;;;;;;;;;;;;;;;;;1017152;29;1214;-15
2021/10/23 00:20:45;;;;;;;;;;;;;;;;;;1021360;29;1296;-15
2021/10/23 00:21:16;;;;;;;;;;;;;;;;;;1021574;29;1050;-17
2021/10/23 00:21:47;;;;;;;;;;;;;;;;;;1021431;28;1517;-15
2021/10/23 00:22:17;;;;;;;;;;;;;;;;;;1029451;28;1286;-15
2021/10/23 00:22:48;;;;;;;;;;;;;;;;;;1037966;28;1219;-15
2021/10/23 00:23:18;;;;;;;;;;;;;;;;;;1033107;28;1539;-15
2021/10/23 00:23:49;;;;;;;;;;;;;;;;;;1033969;28;1600;-15
2021/10/23 00:24:20;;;;;;;;;;;;;;;;;;1029364;28;1050;-16
2021/10/23 00:24:52;;;;;;;;;;;;;;;;;;1016485;29;1296;-14
2021/10/23 00:25:22;;;;;;;;;;;;;;;;;;1009530;29;1174;-15
2021/10/23 00:25:53;;;;;;;;;;;;;;;;;;1009293;29;1309;-16
2021/10/23 00:26:24;;;;;;;;;;;;;;;;;;1013744;29;1214;-16
2021/10/23 00:26:55;;;;;;;;;;;;;;;;;;1017537;29;1054;-16
2021/10/23 00:27:26;;;;;;;;;;;;;;;;;;1013137;29;1164;-15
2021/10/23 00:27:57;;;;;;;;;;;;;;;;;;1017562;29;1074;-16
2021/10/23 00:28:28;;;;;;;;;;;;;;;;;;1017739;28;1286;-15
2021/10/23 00:28:58;;;;;;;;;;;;;;;;;;1025635;28;1625;-15
2021/10/23 00:29:29;;;;;;;;;;;;;;;;;;1025469;28;1009;-15
2021/10/23 00:30:00;;;;;;;;;;;;;;;;;;1021582;29;1396;-15
2021/10/23 00:30:30;;;;;;;;;;;;;;;;;;1013858;29;1191;-15
2021/10/23 00:31:02;;;;;;;;;;;;;;;;;;1009576;29;1115;-15
2021/10/23 00:31:33;;;;;;;;;;;;;;;;;;1009245;29;1319;-15
2021/10/23 00:32:05;;;;;;;;;;;;;;;;;;1010925;29;1140;-16
2021/10/23 00:32:37;;;;;;;;;;;;;;;;;;1017713;29;1630;-16
2021/10/23 00:33:08;;;;;;;;;;;;;;;;;;1015847;28;1576;-15
2021/10/23 00:33:41;;;;;;;;;;;;;;;;;;1030776;28;1111;-16
2021/10/23 00:34:11;;;;;;;;;;;;;;;;;;1029580;28;1914;-15
2021/10/23 00:34:41;;;;;;;;;;;;;;;;;;1030607;28;1202;-15
2021/10/23 00:35:12;;;;;;;;;;;;;;;;;;1033872;28;1214;-15
2021/10/23 00:35:43;;;;;;;;;;;;;;;;;;1030453;28;1137;-15
2021/10/23 00:36:13;;;;;;;;;;;;;;;;;;1034329;28;1209;-15
2021/10/23 00:36:45;;;;;;;;;;;;;;;;;;1029412;28;1871;-16
2021/10/23 00:37:15;;;;;;;;;;;;;;;;;;1026348;28;1213;-15
2021/10/23 00:37:45;;;;;;;;;;;;;;;;;;1026116;28;1244;-14
2021/10/23 00:38:16;;;;;;;;;;;;;;;;;;1026337;28;1225;-16
2021/10/23 00:38:47;;;;;;;;;;;;;;;;;;1030609;28;1014;-16
2021/10/23 00:39:19;;;;;;;;;;;;;;;;;;1025034;28;1175;-15
2021/10/23 00:39:49;;;;;;;;;;;;;;;;;;1026264;28;1138;-16
2021/10/23 00:40:20;;;;;;;;;;;;;;;;;;1026672;28;1220;-15
2021/10/23 00:40:51;;;;;;;;;;;;;;;;;;1033416;28;1188;-15
2021/10/23 00:41:22;;;;;;;;;;;;;;;;;;1033882;28;1445;-15
2021/10/23 00:41:52;;;;;;;;;;;;;;;;;;1025665;28;1212;-15
2021/10/23 00:42:24;;;;;;;;;;;;;;;;;;1030135;28;1141;-15
2021/10/23 00:42:54;;;;;;;;;;;;;;;;;;1030380;28;1316;-16
2021/10/23 00:43:25;;;;;;;;;;;;;;;;;;1025263;28;1388;-15
2021/10/23 00:43:56;;;;;;;;;;;;;;;;;;1026262;28;985;-15
2021/10/23 00:44:30;;;;;;;;;;;;;;;;;;1018117;29;1136;-14
2021/10/23 00:45:01;;;;;;;;;;;;;;;;;;1017734;29;1070;-14
2021/10/23 00:45:31;;;;;;;;;;;;;;;;;;1015697;29;1074;-14
2021/10/23 00:46:02;;;;;;;;;;;;;;;;;;1014394;29;1251;-15
2021/10/23 00:46:33;;;;;;;;;;;;;;;;;;1018584;28;1205;-15
2021/10/23 00:47:06;;;;;;;;;;;;;;;;;;1018225;29;1700;-15
2021/10/23 00:47:37;;;;;;;;;;;;;;;;;;1018669;28;1643;-15
2021/10/23 00:48:07;;;;;;;;;;;;;;;;;;1018230;29;1192;-15
2021/10/23 00:48:38;;;;;;;;;;;;;;;;;;1011090;29;1660;-16
2021/10/23 00:49:09;;;;;;;;;;;;;;;;;;1014126;29;1430;-15
2021/10/23 00:49:40;;;;;;;;;;;;;;;;;;1018438;29;1322;-15
2021/10/23 00:50:11;;;;;;;;;;;;;;;;;;1018222;29;1336;-15
2021/10/23 00:50:44;;;;;;;;;;;;;;;;;;1022709;28;1190;-15
2021/10/23 00:51:16;;;;;;;;;;;;;;;;;;1025944;28;1040;-14
2021/10/23 00:51:47;;;;;;;;;;;;;;;;;;1022194;28;1175;-15
2021/10/23 00:52:17;;;;;;;;;;;;;;;;;;1021960;29;1078;-15
2021/10/23 00:52:49;;;;;;;;;;;;;;;;;;1022544;28;1569;-14
2021/10/23 00:53:23;;;;;;;;;;;;;;;;;;1018121;29;1140;-15
2021/10/23 00:53:54;;;;;;;;;;;;;;;;;;1019280;29;1084;-16
2021/10/23 00:54:26;;;;;;;;;;;;;;;;;;1021394;29;1982;-15
2021/10/23 00:54:56;;;;;;;;;;;;;;;;;;1022294;29;1162;-15
2021/10/23 00:55:27;;;;;;;;;;;;;;;;;;1022544;28;1183;-15
2021/10/23 00:55:58;;;;;;;;;;;;;;;;;;1026345;28;1218;-15
2021/10/23 00:56:28;;;;;;;;;;;;;;;;;;1026848;28;1097;-16
2021/10/23 00:57:00;;;;;;;;;;;;;;;;;;1021825;29;1183;-15
2021/10/23 00:57:30;;;;;;;;;;;;;;;;;;1018047;29;1239;-14
2021/10/23 00:58:01;;;;;;;;;;;;;;;;;;1017841;29;1183;-15
2021/10/23 00:58:32;;;;;;;;;;;;;;;;;;1018695;28;1136;-15
2021/10/23 00:59:02;;;;;;;;;;;;;;;;;;1018446;29;1365;-16
2021/10/23 00:59:34;;;;;;;;;;;;;;;;;;1017373;29;1392;-17
2021/10/23 01:00:06;;;;;;;;;;;;;;;;;;1018250;29;1199;-15
2021/10/23 01:00:36;;;;;;;;;;;;;;;;;;1014524;29;1172;-15
2021/10/23 01:01:07;;;;;;;;;;;;;;;;;;1022505;28;1006;-15
2021/10/23 01:01:38;;;;;;;;;;;;;;;;;;1018270;29;1050;-15
2021/10/23 01:02:09;;;;;;;;;;;;;;;;;;1018213;29;1211;-15
2021/10/23 01:02:40;;;;;;;;;;;;;;;;;;1018416;29;1041;-15
2021/10/23 01:03:12;;;;;;;;;;;;;;;;;;1013949;29;1133;-15
2021/10/23 01:03:42;;;;;;;;;;;;;;;;;;1013420;29;1525;-15
2021/10/23 01:04:13;;;;;;;;;;;;;;;;;;1014571;28;1115;-17
2021/10/23 01:04:43;;;;;;;;;;;;;;;;;;1022544;28;1065;-16
2021/10/23 01:05:14;;;;;;;;;;;;;;;;;;1026243;28;1104;-16
2021/10/23 01:05:45;;;;;;;;;;;;;;;;;;1034652;28;1049;-16
2021/10/23 01:06:16;;;;;;;;;;;;;;;;;;1025428;28;1367;-15
2021/10/23 01:06:47;;;;;;;;;;;;;;;;;;1018247;29;1077;-14
2021/10/23 01:07:19;;;;;;;;;;;;;;;;;;1017589;29;1029;-16
2021/10/23 01:07:50;;;;;;;;;;;;;;;;;;1018480;28;1331;-15
2021/10/23 01:08:21;;;;;;;;;;;;;;;;;;1026090;28;1208;-15
2021/10/23 01:08:52;;;;;;;;;;;;;;;;;;1029044;28;1624;-15
2021/10/23 01:09:23;;;;;;;;;;;;;;;;;;1025939;28;1748;-15
2021/10/23 01:09:55;;;;;;;;;;;;;;;;;;1028886;28;1778;-14
2021/10/23 01:10:26;;;;;;;;;;;;;;;;;;1021206;29;1207;-15
2021/10/23 01:10:56;;;;;;;;;;;;;;;;;;1010419;29;1338;-15
2021/10/23 01:11:27;;;;;;;;;;;;;;;;;;1014082;29;1428;-16
2021/10/23 01:11:58;;;;;;;;;;;;;;;;;;1018314;29;1242;-15
2021/10/23 01:12:28;;;;;;;;;;;;;;;;;;1022467;29;1074;-16
2021/10/23 01:12:59;;;;;;;;;;;;;;;;;;1021898;28;1088;-15
2021/10/23 01:13:30;;;;;;;;;;;;;;;;;;1029981;28;1667;-14
2021/10/23 01:14:00;;;;;;;;;;;;;;;;;;1021529;29;1700;-15
2021/10/23 01:14:30;;;;;;;;;;;;;;;;;;1026178;28;1915;-15
2021/10/23 01:15:14;;;;;;;;;;;;;;;;;;1026460;28;1268;-15
2021/10/23 01:15:45;;;;;;;;;;;;;;;;;;1029770;28;1161;-17
2021/10/23 01:16:16;;;;;;;;;;;;;;;;;;1026105;28;1019;-15
2021/10/23 01:16:48;;;;;;;;;;;;;;;;;;1022114;28;1930;-16
2021/10/23 01:17:20;;;;;;;;;;;;;;;;;;1021398;29;1335;-15
2021/10/23 01:17:52;;;;;;;;;;;;;;;;;;1018460;29;1036;-15
2021/10/23 01:18:23;;;;;;;;;;;;;;;;;;1022076;28;1432;-15
2021/10/23 01:18:54;;;;;;;;;;;;;;;;;;1021993;29;1171;-15
2021/10/23 01:19:24;;;;;;;;;;;;;;;;;;1021853;29;1276;-15
2021/10/23 01:19:57;;;;;;;;;;;;;;;;;;1014607;29;1317;-15
2021/10/23 01:20:28;;;;;;;;;;;;;;;;;;1026797;28;1167;-15
2021/10/23 01:20:58;;;;;;;;;;;;;;;;;;1029665;28;1146;-17
2021/10/23 01:21:29;;;;;;;;;;;;;;;;;;1030461;28;1119;-17
2021/10/23 01:22:00;;;;;;;;;;;;;;;;;;1030245;28;1564;-15
2021/10/23 01:22:31;;;;;;;;;;;;;;;;;;1030793;28;1236;-14
2021/10/23 01:23:01;;;;;;;;;;;;;;;;;;1034441;28;1178;-15
2021/10/23 01:23:32;;;;;;;;;;;;;;;;;;1033694;28;1579;-16
2021/10/23 01:24:05;;;;;;;;;;;;;;;;;;1034145;28;1195;-15
2021/10/23 01:24:35;;;;;;;;;;;;;;;;;;1037614;28;1322;-15
2021/10/23 01:25:07;;;;;;;;;;;;;;;;;;1038106;28;1171;-16
2021/10/23 01:25:38;;;;;;;;;;;;;;;;;;1034361;28;1532;-15
2021/10/23 01:26:09;;;;;;;;;;;;;;;;;;1028959;28;1139;-15
2021/10/23 01:26:40;;;;;;;;;;;;;;;;;;1021853;29;1559;-15
2021/10/23 01:27:12;;;;;;;;;;;;;;;;;;1021990;29;1076;-14
2021/10/23 01:27:42;;;;;;;;;;;;;;;;;;1017761;29;1242;-15
2021/10/23 01:28:13;;;;;;;;;;;;;;;;;;1017992;29;1115;-15
2021/10/23 01:28:44;;;;;;;;;;;;;;;;;;1017228;29;1433;-15
2021/10/23 01:29:15;;;;;;;;;;;;;;;;;;1010165;29;1222;-15
2021/10/23 01:29:45;;;;;;;;;;;;;;;;;;1014608;29;1163;-15
2021/10/23 01:30:17;;;;;;;;;;;;;;;;;;1021234;28;1648;-16
2021/10/23 01:30:48;;;;;;;;;;;;;;;;;;1026352;28;1103;-15
2021/10/23 01:31:18;;;;;;;;;;;;;;;;;;1025683;28;1176;-15
2021/10/23 01:31:51;;;;;;;;;;;;;;;;;;1026530;28;1350;-15
2021/10/23 01:32:22;;;;;;;;;;;;;;;;;;1030637;28;969;-15
2021/10/23 01:32:53;;;;;;;;;;;;;;;;;;1026400;28;1152;-14
2021/10/23 01:33:24;;;;;;;;;;;;;;;;;;1026235;28;1202;-16
2021/10/23 01:33:55;;;;;;;;;;;;;;;;;;1021891;29;1204;-15
2021/10/23 01:34:26;;;;;;;;;;;;;;;;;;1021916;28;1954;-17
2021/10/23 01:34:57;;;;;;;;;;;;;;;;;;1026213;28;1109;-15
2021/10/23 01:35:28;;;;;;;;;;;;;;;;;;1026046;28;1182;-17
2021/10/23 01:36:13;;;;;;;;;;;;;;;;;;1022287;29;1164;-14
2021/10/23 01:37:04;;;;;;;;;;;;;;;;;;1018017;29;1834;-16
2021/10/23 01:37:39;;;;;;;;;;;;;;;;;;1014917;29;1235;-15
2021/10/23 01:38:10;;;;;;;;;;;;;;;;;;1017313;29;1569;-15
2021/10/23 01:38:40;;;;;;;;;;;;;;;;;;1025203;28;1384;-15
2021/10/23 01:39:11;;;;;;;;;;;;;;;;;;1026349;28;1073;-16
2021/10/23 01:39:42;;;;;;;;;;;;;;;;;;1026134;28;1275;-15
2021/10/23 01:40:14;;;;;;;;;;;;;;;;;;1037832;28;1706;-15
2021/10/23 01:40:44;;;;;;;;;;;;;;;;;;1038094;28;1579;-15
2021/10/23 01:41:15;;;;;;;;;;;;;;;;;;1034072;28;1192;-15
2021/10/23 01:41:45;;;;;;;;;;;;;;;;;;1034602;28;1312;-15
2021/10/23 01:42:16;;;;;;;;;;;;;;;;;;1033834;28;1390;-15
2021/10/23 01:42:47;;;;;;;;;;;;;;;;;;1030404;28;1331;-17
2021/10/23 01:43:17;;;;;;;;;;;;;;;;;;1025272;28;1440;-15
2021/10/23 01:43:48;;;;;;;;;;;;;;;;;;1021274;29;1234;-15
2021/10/23 01:44:23;;;;;;;;;;;;;;;;;;1022068;29;1155;-17
2021/10/23 01:44:54;;;;;;;;;;;;;;;;;;1022193;28;1307;-14
2021/10/23 01:45:24;;;;;;;;;;;;;;;;;;1021945;29;1095;-15
2021/10/23 01:45:55;;;;;;;;;;;;;;;;;;1018843;28;1174;-15
2021/10/23 01:46:26;;;;;;;;;;;;;;;;;;1026205;28;1110;-15
2021/10/23 01:46:56;;;;;;;;;;;;;;;;;;1022313;28;1274;-17
2021/10/23 01:47:27;;;;;;;;;;;;;;;;;;1025534;28;1198;-15
2021/10/23 01:47:58;;;;;;;;;;;;;;;;;;1017824;29;1200;-15
2021/10/23 01:48:30;;;;;;;;;;;;;;;;;;1018504;29;1071;-15
2021/10/23 01:49:01;;;;;;;;;;;;;;;;;;1018210;28;1589;-15
2021/10/23 01:49:32;;;;;;;;;;;;;;;;;;1026422;28;1073;-15
2021/10/23 01:50:03;;;;;;;;;;;;;;;;;;1025778;28;1604;-14
2021/10/23 01:50:33;;;;;;;;;;;;;;;;;;1021834;28;1081;-15
2021/10/23 01:51:04;;;;;;;;;;;;;;;;;;1022422;28;1148;-15
2021/10/23 01:51:35;;;;;;;;;;;;;;;;;;1029487;28;1511;-14
2021/10/23 01:52:06;;;;;;;;;;;;;;;;;;1030498;28;1174;-16
2021/10/23 01:52:38;;;;;;;;;;;;;;;;;;1033984;28;1228;-15
2021/10/23 01:53:09;;;;;;;;;;;;;;;;;;1026056;28;1190;-15
2021/10/23 01:53:39;;;;;;;;;;;;;;;;;;1022198;29;1083;-15
2021/10/23 01:54:10;;;;;;;;;;;;;;;;;;1021614;29;1627;-15
2021/10/23 01:54:41;;;;;;;;;;;;;;;;;;1018569;28;967;-15
2021/10/23 01:55:13;;;;;;;;;;;;;;;;;;1021988;28;1642;-14
2021/10/23 01:55:43;;;;;;;;;;;;;;;;;;1021771;29;1003;-15
2021/10/23 01:56:14;;;;;;;;;;;;;;;;;;1022151;29;1137;-16
2021/10/23 01:56:44;;;;;;;;;;;;;;;;;;1021848;28;1534;-16
2021/10/23 01:57:15;;;;;;;;;;;;;;;;;;1025856;28;1253;-15
2021/10/23 01:57:47;;;;;;;;;;;;;;;;;;1018077;29;1247;-15
2021/10/23 01:58:18;;;;;;;;;;;;;;;;;;1017461;29;1690;-15
2021/10/23 01:58:48;;;;;;;;;;;;;;;;;;1014199;29;1248;-16
2021/10/23 01:59:19;;;;;;;;;;;;;;;;;;1014089;29;1393;-15
2021/10/23 01:59:50;;;;;;;;;;;;;;;;;;1021844;29;1127;-15
2021/10/23 02:00:21;;;;;;;;;;;;;;;;;;1022468;28;1017;-15
2021/10/23 02:00:52;;;;;;;;;;;;;;;;;;1025048;28;1244;-16
2021/10/23 02:01:24;;;;;;;;;;;;;;;;;;1022350;28;1269;-15
2021/10/23 02:01:54;;;;;;;;;;;;;;;;;;1021459;29;1372;-14
2021/10/23 02:02:25;;;;;;;;;;;;;;;;;;1021906;28;1201;-15
2021/10/23 02:02:56;;;;;;;;;;;;;;;;;;1014014;29;1077;-15
2021/10/23 02:03:26;;;;;;;;;;;;;;;;;;1010189;29;1651;-15
2021/10/23 02:03:57;;;;;;;;;;;;;;;;;;1021929;29;1206;-15
2021/10/23 02:04:28;;;;;;;;;;;;;;;;;;1018739;28;972;-15
2021/10/23 02:04:59;;;;;;;;;;;;;;;;;;1013394;29;1477;-16
2021/10/23 02:05:30;;;;;;;;;;;;;;;;;;1022012;29;1119;-16
2021/10/23 02:06:00;;;;;;;;;;;;;;;;;;1021892;28;1682;-15
2021/10/23 02:06:31;;;;;;;;;;;;;;;;;;1022043;28;1130;-15
2021/10/23 02:07:02;;;;;;;;;;;;;;;;;;1026018;28;1160;-15
2021/10/23 02:07:33;;;;;;;;;;;;;;;;;;1021126;29;1190;-16
2021/10/23 02:08:04;;;;;;;;;;;;;;;;;;1017991;29;1037;-15
2021/10/23 02:08:34;;;;;;;;;;;;;;;;;;1018002;29;1120;-15
2021/10/23 02:09:05;;;;;;;;;;;;;;;;;;1022128;28;996;-15
2021/10/23 02:09:35;;;;;;;;;;;;;;;;;;1026264;28;970;-15
2021/10/23 02:10:07;;;;;;;;;;;;;;;;;;1033756;28;1440;-15
2021/10/23 02:10:38;;;;;;;;;;;;;;;;;;1026222;28;1251;-15
2021/10/23 02:11:08;;;;;;;;;;;;;;;;;;1026108;28;1038;-16
2021/10/23 02:11:39;;;;;;;;;;;;;;;;;;1025916;28;1314;-17
2021/10/23 02:12:10;;;;;;;;;;;;;;;;;;1029418;28;1222;-15
2021/10/23 02:12:41;;;;;;;;;;;;;;;;;;1021615;29;1847;-15
2021/10/23 02:13:12;;;;;;;;;;;;;;;;;;1021734;29;1111;-16
2021/10/23 02:13:42;;;;;;;;;;;;;;;;;;1022406;29;1240;-16
2021/10/23 02:14:13;;;;;;;;;;;;;;;;;;1021474;28;1977;-15
2021/10/23 02:14:44;;;;;;;;;;;;;;;;;;1029710;28;1035;-15
2021/10/23 02:15:15;;;;;;;;;;;;;;;;;;1033694;28;1715;-13
2021/10/23 02:15:46;;;;;;;;;;;;;;;;;;1034303;28;1412;-17
2021/10/23 02:16:16;;;;;;;;;;;;;;;;;;1025812;28;1092;-14
2021/10/23 02:16:46;;;;;;;;;;;;;;;;;;1025814;28;1683;-15
2021/10/23 02:17:18;;;;;;;;;;;;;;;;;;1025772;28;1190;-15
2021/10/23 02:17:48;;;;;;;;;;;;;;;;;;1014378;28;1497;-15
2021/10/23 02:18:19;;;;;;;;;;;;;;;;;;1024686;28;1194;-15
2021/10/23 02:18:50;;;;;;;;;;;;;;;;;;1026034;28;1155;-15
2021/10/23 02:19:20;;;;;;;;;;;;;;;;;;1025246;28;1421;-14
2021/10/23 02:19:51;;;;;;;;;;;;;;;;;;1022264;28;965;-15
2021/10/23 02:20:22;;;;;;;;;;;;;;;;;;1018034;29;1213;-15
2021/10/23 02:20:53;;;;;;;;;;;;;;;;;;1017303;29;2084;-15
2021/10/23 02:21:24;;;;;;;;;;;;;;;;;;1014498;29;1149;-15
2021/10/23 02:21:54;;;;;;;;;;;;;;;;;;1014392;28;1167;-16
2021/10/23 02:22:24;;;;;;;;;;;;;;;;;;1026296;28;1069;-15
2021/10/23 02:22:54;;;;;;;;;;;;;;;;;;1034331;28;1129;-15
2021/10/23 02:23:25;;;;;;;;;;;;;;;;;;1034314;28;1173;-15
2021/10/23 02:23:56;;;;;;;;;;;;;;;;;;1026117;28;1288;-15
2021/10/23 02:24:27;;;;;;;;;;;;;;;;;;1018100;29;1028;-15
2021/10/23 02:24:58;;;;;;;;;;;;;;;;;;1013617;29;1190;-15
2021/10/23 02:25:29;;;;;;;;;;;;;;;;;;1014628;29;1104;-16
2021/10/23 02:26:00;;;;;;;;;;;;;;;;;;1013648;29;1135;-16
2021/10/23 02:26:31;;;;;;;;;;;;;;;;;;1021748;28;1113;-14
2021/10/23 02:27:01;;;;;;;;;;;;;;;;;;1018416;28;985;-15
2021/10/23 02:27:32;;;;;;;;;;;;;;;;;;1025045;28;1190;-15
2021/10/23 02:28:03;;;;;;;;;;;;;;;;;;1025782;28;1506;-15
2021/10/23 02:28:34;;;;;;;;;;;;;;;;;;1029290;28;1700;-15
2021/10/23 02:29:04;;;;;;;;;;;;;;;;;;1029675;28;1181;-15
2021/10/23 02:29:35;;;;;;;;;;;;;;;;;;1030364;28;1124;-16
2021/10/23 02:30:07;;;;;;;;;;;;;;;;;;1033646;28;1179;-15
2021/10/23 02:30:40;;;;;;;;;;;;;;;;;;1026099;28;1074;-15
2021/10/23 02:31:11;;;;;;;;;;;;;;;;;;1026063;28;1043;-15
2021/10/23 02:31:42;;;;;;;;;;;;;;;;;;1026065;28;1152;-15
2021/10/23 02:32:13;;;;;;;;;;;;;;;;;;1018738;28;1170;-15
2021/10/23 02:32:43;;;;;;;;;;;;;;;;;;1026103;28;1312;-15
2021/10/23 02:33:14;;;;;;;;;;;;;;;;;;1021704;29;1043;-16
2021/10/23 02:33:45;;;;;;;;;;;;;;;;;;1014380;28;1176;-15
2021/10/23 02:34:16;;;;;;;;;;;;;;;;;;1016970;29;1972;-15
2021/10/23 02:34:47;;;;;;;;;;;;;;;;;;1014360;29;1457;-15
2021/10/23 02:35:19;;;;;;;;;;;;;;;;;;1021888;28;1604;-15
2021/10/23 02:35:49;;;;;;;;;;;;;;;;;;1034473;28;1103;-15
2021/10/23 02:36:20;;;;;;;;;;;;;;;;;;1038312;28;1307;-15
2021/10/23 02:36:51;;;;;;;;;;;;;;;;;;1037696;28;1162;-14
2021/10/23 02:37:22;;;;;;;;;;;;;;;;;;1029733;28;1171;-15
2021/10/23 02:37:53;;;;;;;;;;;;;;;;;;1029905;28;1130;-16
2021/10/23 02:38:24;;;;;;;;;;;;;;;;;;1029843;28;1248;-14
2021/10/23 02:38:54;;;;;;;;;;;;;;;;;;1017645;28;1220;-16
2021/10/23 02:39:25;;;;;;;;;;;;;;;;;;1025519;28;1526;-15
2021/10/23 02:39:55;;;;;;;;;;;;;;;;;;1026165;28;988;-16
2021/10/23 02:40:26;;;;;;;;;;;;;;;;;;1022079;28;1075;-15
2021/10/23 02:40:58;;;;;;;;;;;;;;;;;;1029588;28;1163;-14
2021/10/23 02:41:28;;;;;;;;;;;;;;;;;;1025981;28;1243;-15
2021/10/23 02:41:59;;;;;;;;;;;;;;;;;;1025729;28;1298;-15
2021/10/23 02:42:30;;;;;;;;;;;;;;;;;;1017878;28;1234;-16
2021/10/23 02:43:00;;;;;;;;;;;;;;;;;;1014402;29;981;-16
2021/10/23 02:43:31;;;;;;;;;;;;;;;;;;1020997;28;1625;-15
2021/10/23 02:44:05;;;;;;;;;;;;;;;;;;1022123;28;1178;-15
2021/10/23 02:44:36;;;;;;;;;;;;;;;;;;1025170;28;1226;-14
2021/10/23 02:45:09;;;;;;;;;;;;;;;;;;1018155;29;1255;-15
2021/10/23 02:45:39;;;;;;;;;;;;;;;;;;1026737;28;1266;-16
2021/10/23 02:46:10;;;;;;;;;;;;;;;;;;1025058;28;1479;-15
2021/10/23 02:46:41;;;;;;;;;;;;;;;;;;1022177;29;1275;-15
2021/10/23 02:47:11;;;;;;;;;;;;;;;;;;1021931;28;1229;-14
2021/10/23 02:47:42;;;;;;;;;;;;;;;;;;1025801;28;1203;-14
2021/10/23 02:48:13;;;;;;;;;;;;;;;;;;1025748;28;1131;-16
2021/10/23 02:48:44;;;;;;;;;;;;;;;;;;1025876;28;1361;-15
2021/10/23 02:49:15;;;;;;;;;;;;;;;;;;1025828;28;1437;-18
2021/10/23 02:49:46;;;;;;;;;;;;;;;;;;1014173;29;1214;-16
2021/10/23 02:50:18;;;;;;;;;;;;;;;;;;1002471;29;1170;-15
2021/10/23 02:50:49;;;;;;;;;;;;;;;;;;1010270;29;1164;-15
2021/10/23 02:51:21;;;;;;;;;;;;;;;;;;1010150;29;1152;-15
2021/10/23 02:51:52;;;;;;;;;;;;;;;;;;1007684;29;1177;-15
2021/10/23 02:52:23;;;;;;;;;;;;;;;;;;1030023;28;1056;-15
2021/10/23 02:52:54;;;;;;;;;;;;;;;;;;1024519;28;1486;-15
2021/10/23 02:53:24;;;;;;;;;;;;;;;;;;1025991;28;1343;-15
2021/10/23 02:53:55;;;;;;;;;;;;;;;;;;1025377;28;1636;-15
2021/10/23 02:54:25;;;;;;;;;;;;;;;;;;1021942;28;1906;-15
2021/10/23 02:54:56;;;;;;;;;;;;;;;;;;1029761;28;1203;-15
2021/10/23 02:55:27;;;;;;;;;;;;;;;;;;1029676;28;1031;-15
2021/10/23 02:55:58;;;;;;;;;;;;;;;;;;1029796;28;1273;-15
2021/10/23 02:56:30;;;;;;;;;;;;;;;;;;1021915;29;1120;-16
2021/10/23 02:57:01;;;;;;;;;;;;;;;;;;1017422;29;1279;-15
2021/10/23 02:57:31;;;;;;;;;;;;;;;;;;1017814;29;984;-15
2021/10/23 02:58:02;;;;;;;;;;;;;;;;;;1017476;28;1774;-15
2021/10/23 02:58:34;;;;;;;;;;;;;;;;;;1021822;28;1210;-15
2021/10/23 02:59:04;;;;;;;;;;;;;;;;;;1030026;28;1434;-16
2021/10/23 02:59:36;;;;;;;;;;;;;;;;;;1029837;28;1325;-15
2021/10/23 03:00:07;;;;;;;;;;;;;;;;;;1021448;29;1220;-16
2021/10/23 03:00:38;;;;;;;;;;;;;;;;;;1017968;28;2017;-15
2021/10/23 03:01:09;;;;;;;;;;;;;;;;;;1025561;28;1184;-15
2021/10/23 03:01:40;;;;;;;;;;;;;;;;;;1026772;28;1247;-14
2021/10/23 03:02:11;;;;;;;;;;;;;;;;;;1024684;28;1395;-15
2021/10/23 03:02:42;;;;;;;;;;;;;;;;;;1026069;28;1285;-15
2021/10/23 03:03:13;;;;;;;;;;;;;;;;;;1013527;29;1071;-12
2021/10/23 03:03:44;;;;;;;;;;;;;;;;;;1017948;29;1182;-15
2021/10/23 03:04:15;;;;;;;;;;;;;;;;;;1017628;29;1247;-15
2021/10/23 03:04:46;;;;;;;;;;;;;;;;;;1021513;28;1554;-15
2021/10/23 03:05:17;;;;;;;;;;;;;;;;;;1029586;28;1458;-15
2021/10/23 03:05:48;;;;;;;;;;;;;;;;;;1025058;28;1364;-15
2021/10/23 03:06:19;;;;;;;;;;;;;;;;;;1021312;29;1210;-16
2021/10/23 03:06:50;;;;;;;;;;;;;;;;;;1025983;28;1064;-15
2021/10/23 03:07:21;;;;;;;;;;;;;;;;;;1026066;28;939;-16
2021/10/23 03:07:52;;;;;;;;;;;;;;;;;;1025420;28;1059;-15
2021/10/23 03:08:23;;;;;;;;;;;;;;;;;;1021563;29;1425;-16
2021/10/23 03:08:54;;;;;;;;;;;;;;;;;;1017380;29;1482;-16
2021/10/23 03:09:25;;;;;;;;;;;;;;;;;;1018439;28;1239;-15
2021/10/23 03:09:56;;;;;;;;;;;;;;;;;;1025685;28;1107;-15
2021/10/23 03:10:27;;;;;;;;;;;;;;;;;;1022873;28;1036;-15
2021/10/23 03:10:58;;;;;;;;;;;;;;;;;;1020770;29;1298;-15
2021/10/23 03:11:29;;;;;;;;;;;;;;;;;;1017578;29;1170;-17
2021/10/23 03:11:59;;;;;;;;;;;;;;;;;;1021722;29;991;-15
2021/10/23 03:12:31;;;;;;;;;;;;;;;;;;1021957;28;1025;-15
2021/10/23 03:13:04;;;;;;;;;;;;;;;;;;1029902;28;1320;-15
2021/10/23 03:13:34;;;;;;;;;;;;;;;;;;1033515;28;1251;-15
2021/10/23 03:14:06;;;;;;;;;;;;;;;;;;1028912;28;1710;-15
2021/10/23 03:14:36;;;;;;;;;;;;;;;;;;1028924;28;1910;-15
2021/10/23 03:15:07;;;;;;;;;;;;;;;;;;1029834;28;1394;-14
2021/10/23 03:15:39;;;;;;;;;;;;;;;;;;1025885;28;1403;-17
2021/10/23 03:16:10;;;;;;;;;;;;;;;;;;1033987;28;1206;-17
2021/10/23 03:16:40;;;;;;;;;;;;;;;;;;1037126;28;1240;-16
2021/10/23 03:17:11;;;;;;;;;;;;;;;;;;1025476;28;1154;-16
2021/10/23 03:17:41;;;;;;;;;;;;;;;;;;1026343;28;1060;-16
2021/10/23 03:18:12;;;;;;;;;;;;;;;;;;1024539;28;1368;-15
2021/10/23 03:18:42;;;;;;;;;;;;;;;;;;1030245;28;1148;-16
2021/10/23 03:19:13;;;;;;;;;;;;;;;;;;1029971;28;1342;-16
2021/10/23 03:19:43;;;;;;;;;;;;;;;;;;1029895;28;1284;-15
2021/10/23 03:20:15;;;;;;;;;;;;;;;;;;1029535;28;1079;-16
2021/10/23 03:20:46;;;;;;;;;;;;;;;;;;1033174;28;1463;-15
2021/10/23 03:21:19;;;;;;;;;;;;;;;;;;1033433;28;1046;-16
2021/10/23 03:21:50;;;;;;;;;;;;;;;;;;1028204;28;1095;-15
2021/10/23 03:22:21;;;;;;;;;;;;;;;;;;1024603;28;1285;-15
2021/10/23 03:22:51;;;;;;;;;;;;;;;;;;1021858;29;1171;-15
2021/10/23 03:23:22;;;;;;;;;;;;;;;;;;1017329;28;1174;-15
2021/10/23 03:23:52;;;;;;;;;;;;;;;;;;1025832;28;1074;-15
2021/10/23 03:24:23;;;;;;;;;;;;;;;;;;1021893;29;986;-15
2021/10/23 03:24:53;;;;;;;;;;;;;;;;;;1021510;29;1177;-15
2021/10/23 03:25:24;;;;;;;;;;;;;;;;;;1029799;28;944;-15
2021/10/23 03:25:56;;;;;;;;;;;;;;;;;;1033522;28;1655;-15
2021/10/23 03:26:26;;;;;;;;;;;;;;;;;;1029602;28;1468;-14
2021/10/23 03:26:57;;;;;;;;;;;;;;;;;;1029316;28;1165;-14
2021/10/23 03:27:27;;;;;;;;;;;;;;;;;;1025818;28;1029;-15
2021/10/23 03:27:58;;;;;;;;;;;;;;;;;;1018041;28;1050;-17
2021/10/23 03:28:32;;;;;;;;;;;;;;;;;;1033460;28;1564;-15
2021/10/23 03:29:02;;;;;;;;;;;;;;;;;;1029631;28;2597;-17
2021/10/23 03:29:33;;;;;;;;;;;;;;;;;;1021659;29;1516;-16
2021/10/23 03:30:04;;;;;;;;;;;;;;;;;;1016532;29;1222;-16
2021/10/23 03:30:35;;;;;;;;;;;;;;;;;;1021647;29;1298;-15
2021/10/23 03:31:06;;;;;;;;;;;;;;;;;;1022431;28;1115;-15
2021/10/23 03:31:36;;;;;;;;;;;;;;;;;;1029096;28;1474;-15
2021/10/23 03:32:07;;;;;;;;;;;;;;;;;;1029660;28;1176;-15
2021/10/23 03:32:37;;;;;;;;;;;;;;;;;;1033392;28;1332;-15
2021/10/23 03:33:07;;;;;;;;;;;;;;;;;;1033783;28;1181;-16
2021/10/23 03:33:38;;;;;;;;;;;;;;;;;;1030220;28;1271;-15
2021/10/23 03:34:08;;;;;;;;;;;;;;;;;;1029212;28;1384;-14
2021/10/23 03:34:39;;;;;;;;;;;;;;;;;;1030015;28;1907;-16
2021/10/23 03:35:10;;;;;;;;;;;;;;;;;;1025632;28;1065;-15
2021/10/23 03:35:40;;;;;;;;;;;;;;;;;;1029960;28;1307;-15